Alma, Arkansas
Current Conditions -  °F | °C
As of 9:53 PM on Friday 28 Nov 2014 (Local Time) from KFSM Reporting Station
Clear Clear  
Wind Chill:   Ceiling: Unl
Heat Index:   Visibility: 10mi
Dew Point:   Wind: 5mph
Humidity: 76%   Direction: 40°NE
Pressure: 29.98"   Gusts: NA
Location:  35.48°N, 94.22°W
Report Text: KFSM 290353Z AUTO 04004KT 10SM CLR 07/03 A2998 RMK AO2 SLP153 T00720033
Loading
Personal Weather Stations






























Interactive Weather Map New forecast layout! Learn more

10-Day Weather Forecast

Advertisements
Track Severe Weather on mobile